Time;durP1;ratioP1;P1;durP2;ratioP2;P2;SDS_P1;SDS_P2;PMS_P1;PMS_P2;Temp;Humidity;BMP_temperature;BMP_pressure;BME280_temperature;BME280_humidity;BME280_pressure;Samples;Min_cycle;Max_cycle;Signal;HPM_P1;HPM_P2
2024/04/17 00:00:50;;;;;;;2.73;2.30;;;9.50;99.90;;;;;;5391855;26;20297;-69
2024/04/17 00:03:15;;;;;;;2.63;2.03;;;9.50;99.90;;;;;;5384403;26;20539;-72
2024/04/17 00:05:41;;;;;;;2.23;2.10;;;9.50;99.90;;;;;;5388751;26;20340;-73
2024/04/17 00:08:07;;;;;;;2.87;2.10;;;9.40;99.90;;;;;;5383295;26;20357;-72
2024/04/17 00:10:32;;;;;;;3.30;1.97;;;9.40;99.90;;;;;;5387045;26;20289;-71
2024/04/17 00:12:58;;;;;;;1.70;1.60;;;9.20;99.90;;;;;;5383031;26;20265;-72
2024/04/17 00:15:24;;;;;;;1.87;1.50;;;9.20;99.90;;;;;;5390286;26;20250;-71
2024/04/17 00:17:49;;;;;;;2.33;2.10;;;9.30;99.90;;;;;;5389137;26;20756;-73
2024/04/17 00:20:15;;;;;;;1.50;1.40;;;9.30;99.90;;;;;;5392713;26;20341;-71
2024/04/17 00:22:41;;;;;;;2.40;1.47;;;9.30;99.90;;;;;;5381402;26;20750;-71
2024/04/17 00:25:06;;;;;;;2.20;2.00;;;9.30;99.90;;;;;;5379846;26;20289;-72
2024/04/17 00:27:32;;;;;;;2.00;1.60;;;9.30;99.90;;;;;;5384904;26;20250;-73
2024/04/17 00:29:58;;;;;;;1.60;1.30;;;9.30;99.90;;;;;;5384894;26;20277;-73
2024/04/17 00:32:23;;;;;;;1.83;1.50;;;9.20;99.90;;;;;;5387279;26;20328;-73
2024/04/17 00:34:49;;;;;;;1.40;1.30;;;9.20;99.90;;;;;;5366531;26;20257;-71
2024/04/17 00:37:14;;;;;;;1.90;1.50;;;9.30;99.90;;;;;;5374191;26;20254;-72
2024/04/17 00:39:40;;;;;;;1.60;1.43;;;9.30;99.90;;;;;;5385340;26;20287;-72
2024/04/17 00:42:06;;;;;;;1.70;1.53;;;9.30;99.90;;;;;;5373264;26;20357;-72
2024/04/17 00:44:31;;;;;;;1.60;1.23;;;9.30;99.90;;;;;;5382336;26;20358;-72
2024/04/17 00:46:57;;;;;;;1.90;1.70;;;9.20;99.90;;;;;;5353616;26;20266;-73
2024/04/17 00:49:23;;;;;;;1.50;1.40;;;9.20;99.90;;;;;;5376143;26;20713;-72
2024/04/17 00:51:50;;;;;;;1.50;1.40;;;9.20;99.90;;;;;;5391735;26;20260;-72
2024/04/17 00:54:16;;;;;;;1.67;1.13;;;9.10;99.90;;;;;;5382665;26;20301;-72
2024/04/17 00:56:41;;;;;;;1.97;1.67;;;9.10;99.90;;;;;;5387118;26;20474;-71
2024/04/17 00:59:08;;;;;;;1.17;1.07;;;9.10;99.90;;;;;;5378406;26;20552;-72
2024/04/17 01:01:34;;;;;;;1.10;1.00;;;9.20;99.90;;;;;;5362186;26;20639;-71
2024/04/17 01:04:00;;;;;;;1.40;1.30;;;9.00;99.90;;;;;;5380881;26;20584;-72
2024/04/17 01:06:27;;;;;;;1.33;1.07;;;8.90;99.90;;;;;;5380384;26;20301;-72
2024/04/17 01:08:52;;;;;;;1.10;1.00;;;9.00;99.90;;;;;;5389823;26;20262;-74
2024/04/17 01:11:18;;;;;;;1.13;1.00;;;8.90;99.90;;;;;;5379557;26;20540;-72
2024/04/17 01:13:44;;;;;;;1.07;0.97;;;9.00;99.90;;;;;;5384132;26;20362;-72
2024/04/17 01:16:10;;;;;;;1.17;1.10;;;9.00;99.90;;;;;;5377521;26;20253;-71
2024/04/17 01:18:36;;;;;;;1.70;1.47;;;9.00;99.90;;;;;;5362930;26;20253;-72
2024/04/17 01:21:03;;;;;;;0.93;0.80;;;9.00;99.90;;;;;;5385514;26;20358;-70
2024/04/17 01:23:29;;;;;;;1.43;1.33;;;9.00;99.90;;;;;;5380219;26;20565;-75
2024/04/17 01:25:54;;;;;;;0.93;0.93;;;9.10;99.90;;;;;;5386616;26;20484;-73
2024/04/17 01:28:20;;;;;;;1.40;1.30;;;9.10;99.90;;;;;;5372692;26;20330;-71
2024/04/17 01:30:46;;;;;;;1.23;1.13;;;9.10;99.90;;;;;;5379669;26;20262;-71
2024/04/17 01:33:11;;;;;;;1.40;1.30;;;9.10;99.90;;;;;;5385624;26;20324;-72
2024/04/17 01:35:37;;;;;;;1.13;1.03;;;9.10;99.90;;;;;;5382927;26;20369;-74
2024/04/17 01:38:03;;;;;;;1.47;1.00;;;9.10;99.90;;;;;;5381050;26;20287;-70
2024/04/17 01:40:28;;;;;;;1.30;1.20;;;9.10;99.90;;;;;;5375632;26;20269;-70
2024/04/17 01:42:54;;;;;;;1.67;1.23;;;9.00;99.90;;;;;;5382909;26;20738;-71
2024/04/17 01:45:19;;;;;;;1.43;1.30;;;9.00;99.90;;;;;;5374782;26;20262;-73
2024/04/17 01:47:45;;;;;;;1.43;1.33;;;9.00;99.90;;;;;;5414013;26;20356;-72
2024/04/17 01:50:11;;;;;;;1.10;1.03;;;8.90;99.90;;;;;;5362553;26;20274;-72
2024/04/17 01:52:36;;;;;;;1.67;1.27;;;8.90;99.90;;;;;;5360442;26;20262;-70
2024/04/17 01:55:02;;;;;;;1.40;1.30;;;8.80;99.90;;;;;;5389331;26;20316;-73
2024/04/17 01:57:28;;;;;;;1.03;1.00;;;8.80;99.90;;;;;;5394818;26;20321;-73
2024/04/17 01:59:53;;;;;;;1.90;1.50;;;8.90;99.90;;;;;;5383217;26;20308;-72
2024/04/17 02:02:19;;;;;;;1.37;1.27;;;8.80;99.90;;;;;;5371520;26;20250;-72
2024/04/17 02:04:45;;;;;;;2.00;1.70;;;8.80;99.90;;;;;;5380136;26;20277;-73
2024/04/17 02:07:10;;;;;;;1.90;1.60;;;8.80;99.90;;;;;;5375849;26;20254;-73
2024/04/17 02:09:36;;;;;;;1.70;1.60;;;8.80;99.90;;;;;;5381319;26;20273;-73
2024/04/17 02:12:02;;;;;;;1.50;1.40;;;8.70;99.90;;;;;;5384930;26;20289;-70
2024/04/17 02:14:27;;;;;;;1.50;1.40;;;8.70;99.90;;;;;;5369632;26;20283;-72
2024/04/17 02:16:53;;;;;;;1.53;1.40;;;8.80;99.90;;;;;;5382971;26;20264;-72
2024/04/17 02:19:18;;;;;;;1.80;1.70;;;8.70;99.90;;;;;;5375950;26;20309;-72
2024/04/17 02:21:44;;;;;;;2.00;1.90;;;8.60;99.90;;;;;;5381989;26;20336;-75
2024/04/17 02:24:10;;;;;;;1.53;1.37;;;8.60;99.90;;;;;;5384899;26;20278;-74
2024/04/17 02:26:35;;;;;;;3.10;2.50;;;8.60;99.90;;;;;;5410548;26;20293;-72
2024/04/17 02:29:01;;;;;;;3.77;2.10;;;8.60;99.90;;;;;;5354992;26;20744;-72
2024/04/17 02:31:27;;;;;;;2.83;2.20;;;8.60;99.90;;;;;;5381084;26;20636;-73
2024/04/17 02:33:53;;;;;;;2.60;2.20;;;8.60;99.90;;;;;;5387589;26;20543;-71
2024/04/17 02:36:18;;;;;;;2.30;2.00;;;8.50;99.90;;;;;;5384658;26;20319;-75
2024/04/17 02:38:44;;;;;;;2.27;2.07;;;8.40;99.90;;;;;;5389336;26;20683;-72
2024/04/17 02:41:09;;;;;;;3.67;3.27;;;8.20;99.90;;;;;;5395486;26;20270;-72
2024/04/17 02:43:35;;;;;;;7.90;3.23;;;8.30;99.90;;;;;;5386848;26;20355;-71
2024/04/17 02:46:01;;;;;;;7.07;2.80;;;8.20;99.90;;;;;;5371550;26;20262;-71
2024/04/17 02:48:26;;;;;;;3.10;2.80;;;8.30;99.90;;;;;;5392049;26;20258;-72
2024/04/17 02:50:52;;;;;;;2.90;2.60;;;8.30;99.90;;;;;;5402460;26;20253;-70
2024/04/17 02:53:18;;;;;;;3.73;3.03;;;8.30;99.90;;;;;;5396487;26;20258;-73
2024/04/17 02:55:43;;;;;;;3.20;2.73;;;8.20;99.90;;;;;;5398289;26;20273;-72
2024/04/17 02:58:09;;;;;;;4.37;2.83;;;8.40;99.90;;;;;;5386130;26;20360;-71
2024/04/17 03:00:34;;;;;;;5.17;3.20;;;8.50;99.90;;;;;;5393202;26;20274;-71
2024/04/17 03:03:04;;;;;;;2.40;1.90;;;8.50;99.90;;;;;;5396825;26;20253;-72
2024/04/17 03:05:32;;;;;;;3.97;3.00;;;8.50;99.90;;;;;;5361660;26;20266;-75
2024/04/17 03:07:58;;;;;;;3.37;2.53;;;8.40;99.90;;;;;;5393320;26;20540;-74
2024/04/17 03:10:24;;;;;;;7.27;3.53;;;8.30;99.90;;;;;;5388069;26;20485;-72
2024/04/17 03:12:49;;;;;;;3.57;2.70;;;8.30;99.90;;;;;;5390149;26;20262;-74
2024/04/17 03:15:15;;;;;;;3.30;2.60;;;8.30;99.90;;;;;;5403038;26;20801;-72
2024/04/17 03:17:41;;;;;;;3.30;2.80;;;8.20;99.90;;;;;;5399519;26;20265;-72
2024/04/17 03:20:07;;;;;;;3.53;2.60;;;8.10;99.90;;;;;;5370469;26;20270;-73
2024/04/17 03:22:32;;;;;;;4.13;3.10;;;8.00;99.90;;;;;;5378030;26;20294;-73
2024/04/17 03:24:58;;;;;;;3.20;2.90;;;8.00;99.90;;;;;;5379718;26;20273;-71
2024/04/17 03:27:23;;;;;;;3.27;2.97;;;8.00;99.90;;;;;;5361001;26;20265;-71
2024/04/17 03:29:49;;;;;;;2.83;2.60;;;8.20;99.90;;;;;;5393718;26;20269;-72
2024/04/17 03:32:15;;;;;;;5.73;3.13;;;8.20;99.90;;;;;;5340029;26;20266;-73
2024/04/17 03:34:41;;;;;;;3.20;2.67;;;8.30;99.90;;;;;;5379964;26;20270;-72
2024/04/17 03:37:06;;;;;;;2.83;2.43;;;8.30;99.90;;;;;;5385308;26;21244;-71
2024/04/17 03:39:32;;;;;;;3.20;2.80;;;8.50;99.90;;;;;;5382038;26;20309;-72
2024/04/17 03:41:57;;;;;;;3.33;2.50;;;8.50;99.90;;;;;;5392150;26;20266;-72
2024/04/17 03:44:23;;;;;;;2.63;2.43;;;8.50;99.90;;;;;;5382555;26;20316;-72
2024/04/17 03:46:49;;;;;;;5.20;3.33;;;8.50;99.90;;;;;;5362024;26;20289;-73
2024/04/17 03:49:15;;;;;;;6.20;2.97;;;8.50;99.90;;;;;;5408060;26;20367;-71
2024/04/17 03:51:41;;;;;;;2.80;2.43;;;8.50;99.90;;;;;;5354778;26;20763;-71
2024/04/17 03:54:06;;;;;;;49.10;21.83;;;8.50;99.90;;;;;;5371408;26;20492;-72
2024/04/17 03:56:32;;;;;;;29.67;15.53;;;8.40;99.90;;;;;;5385888;26;20324;-72
2024/04/17 03:58:58;;;;;;;11.50;6.83;;;8.40;99.90;;;;;;5380572;26;20269;-73
2024/04/17 04:01:23;;;;;;;10.30;4.90;;;8.50;99.90;;;;;;5391584;26;20265;-71
2024/04/17 04:03:49;;;;;;;5.30;3.77;;;8.50;99.90;;;;;;5381596;26;20270;-72
2024/04/17 04:06:14;;;;;;;3.70;2.97;;;8.40;99.90;;;;;;5388053;26;20256;-71
2024/04/17 04:08:40;;;;;;;4.53;3.20;;;8.40;99.90;;;;;;5382045;26;20354;-73
2024/04/17 04:11:06;;;;;;;3.50;3.20;;;8.50;99.90;;;;;;5386091;26;20254;-73
2024/04/17 04:13:31;;;;;;;3.03;2.83;;;8.40;99.90;;;;;;5364953;26;20266;-71
2024/04/17 04:15:57;;;;;;;3.50;2.80;;;8.40;99.90;;;;;;5379280;26;20752;-71
2024/04/17 04:18:23;;;;;;;3.07;2.77;;;8.50;99.90;;;;;;5385476;26;20271;-71
2024/04/17 04:20:49;;;;;;;7.30;3.10;;;8.40;99.90;;;;;;5384248;26;20305;-72
2024/04/17 04:23:15;;;;;;;4.13;3.07;;;8.40;99.90;;;;;;5348299;26;20270;-71
2024/04/17 04:25:41;;;;;;;3.80;3.00;;;8.50;99.90;;;;;;5390168;26;20326;-72
2024/04/17 04:28:07;;;;;;;3.77;3.07;;;8.50;99.90;;;;;;5383319;26;20597;-72
2024/04/17 04:30:37;;;;;;;4.50;3.07;;;8.40;99.90;;;;;;5385174;26;20508;-76
2024/04/17 04:33:03;;;;;;;3.43;2.40;;;8.40;99.90;;;;;;5388708;26;20308;-73
2024/04/17 04:35:29;;;;;;;5.83;2.50;;;8.50;99.90;;;;;;5366874;26;20556;-73
2024/04/17 04:37:54;;;;;;;4.70;3.53;;;8.50;99.90;;;;;;5387051;26;20265;-72
2024/04/17 04:40:20;;;;;;;4.40;3.13;;;8.30;99.90;;;;;;5384282;26;20619;-72
2024/04/17 04:42:46;;;;;;;5.03;3.20;;;8.30;99.90;;;;;;5366625;26;20274;-72
2024/04/17 04:45:11;;;;;;;4.87;2.60;;;8.20;99.90;;;;;;5382036;26;20305;-73
2024/04/17 04:47:37;;;;;;;3.50;2.90;;;8.20;99.90;;;;;;5384421;26;20262;-73
2024/04/17 04:50:03;;;;;;;6.90;3.20;;;8.30;99.90;;;;;;5393507;26;20244;-75
2024/04/17 04:52:29;;;;;;;5.90;3.23;;;8.30;99.90;;;;;;5380197;26;20266;-71
2024/04/17 04:54:54;;;;;;;7.07;3.47;;;8.30;99.90;;;;;;5388182;26;20262;-70
2024/04/17 04:57:22;;;;;;;3.30;2.80;;;8.20;99.90;;;;;;5381001;26;20303;-72
2024/04/17 04:59:49;;;;;;;4.73;2.97;;;8.20;99.90;;;;;;5386434;26;20260;-72
2024/04/17 05:02:15;;;;;;;6.00;3.60;;;8.30;99.90;;;;;;5383444;26;20601;-71
2024/04/17 05:04:41;;;;;;;5.00;3.30;;;8.30;99.90;;;;;;5382999;26;20492;-69
2024/04/17 05:07:07;;;;;;;11.83;4.00;;;8.30;99.90;;;;;;5381374;26;20266;-72
2024/04/17 05:09:33;;;;;;;3.03;2.50;;;8.40;99.90;;;;;;5386999;26;20483;-71
2024/04/17 05:11:59;;;;;;;3.63;3.10;;;8.30;99.90;;;;;;5388409;26;20378;-71
2024/04/17 05:14:24;;;;;;;3.33;2.90;;;8.30;99.90;;;;;;5382293;26;20516;-74
2024/04/17 05:16:50;;;;;;;3.73;2.90;;;8.30;99.90;;;;;;5384582;26;20747;-71
2024/04/17 05:19:15;;;;;;;4.47;2.97;;;8.20;99.90;;;;;;5364609;26;20373;-72
2024/04/17 05:21:41;;;;;;;4.77;2.97;;;8.30;99.90;;;;;;5388414;26;20409;-72
2024/04/17 05:24:07;;;;;;;4.00;3.40;;;8.20;99.90;;;;;;5358791;26;20612;-72
2024/04/17 05:26:33;;;;;;;5.37;3.40;;;8.20;99.90;;;;;;5383756;26;20245;-71
2024/04/17 05:28:58;;;;;;;3.40;3.00;;;8.30;99.90;;;;;;5386567;26;20316;-70
2024/04/17 05:31:24;;;;;;;7.20;3.37;;;8.30;99.90;;;;;;5387444;26;20335;-75
2024/04/17 05:33:50;;;;;;;4.80;3.07;;;8.30;99.90;;;;;;5393054;26;20291;-73
2024/04/17 05:36:15;;;;;;;3.90;3.50;;;8.20;99.90;;;;;;5387496;26;20273;-72
2024/04/17 05:38:41;;;;;;;14.87;4.00;;;8.20;99.90;;;;;;5390139;26;20267;-72
2024/04/17 05:41:07;;;;;;;4.37;3.40;;;8.30;99.90;;;;;;5385657;26;20308;-73
2024/04/17 05:43:32;;;;;;;4.50;3.80;;;8.20;99.90;;;;;;5388402;26;20266;-72
2024/04/17 05:45:58;;;;;;;3.87;3.47;;;8.10;99.90;;;;;;5364334;26;20261;-72
2024/04/17 05:48:23;;;;;;;5.00;3.37;;;8.00;99.90;;;;;;5394017;26;20363;-74
2024/04/17 05:50:49;;;;;;;5.57;2.93;;;8.20;99.90;;;;;;5386174;26;20269;-74
2024/04/17 05:53:15;;;;;;;4.53;2.70;;;8.20;99.90;;;;;;5385578;26;20300;-72
2024/04/17 05:55:40;;;;;;;4.80;3.33;;;8.20;99.90;;;;;;5389364;26;20256;-71
2024/04/17 05:58:07;;;;;;;5.87;4.37;;;8.30;99.90;;;;;;5382257;26;20362;-71
2024/04/17 06:00:33;;;;;;;8.23;4.00;;;8.30;99.90;;;;;;5421206;26;20782;-70
2024/04/17 06:02:59;;;;;;;6.43;4.20;;;8.40;99.90;;;;;;5383543;26;20562;-72
2024/04/17 06:05:24;;;;;;;4.80;3.60;;;8.50;99.90;;;;;;5380563;26;20483;-71
2024/04/17 06:07:50;;;;;;;4.60;3.50;;;8.40;99.90;;;;;;5383642;26;20321;-70
2024/04/17 06:10:16;;;;;;;5.50;3.70;;;8.30;99.90;;;;;;5389475;26;20373;-72
2024/04/17 06:12:41;;;;;;;9.43;4.80;;;8.40;99.90;;;;;;5366497;26;20265;-72
2024/04/17 06:15:07;;;;;;;9.40;4.20;;;8.30;99.90;;;;;;5364509;26;20628;-74
2024/04/17 06:17:33;;;;;;;6.20;3.73;;;8.30;99.90;;;;;;5386203;26;20734;-73
2024/04/17 06:19:59;;;;;;;5.37;4.60;;;8.20;99.90;;;;;;5388924;26;20277;-71
2024/04/17 06:22:24;;;;;;;6.90;4.50;;;8.30;99.90;;;;;;5376387;26;20262;-71
2024/04/17 06:24:50;;;;;;;7.90;4.80;;;8.30;99.90;;;;;;5383285;26;20270;-74
2024/04/17 06:27:16;;;;;;;6.63;4.87;;;8.30;99.90;;;;;;5380405;26;20399;-72
2024/04/17 06:29:43;;;;;;;6.20;4.30;;;8.20;99.90;;;;;;5389158;26;20265;-73
2024/04/17 06:32:08;;;;;;;7.70;3.57;;;8.20;99.90;;;;;;5381635;26;20280;-72
2024/04/17 06:34:34;;;;;;;5.10;3.27;;;8.20;99.90;;;;;;5382477;26;20904;-73
2024/04/17 06:36:59;;;;;;;7.30;3.77;;;8.20;99.90;;;;;;5382750;26;20289;-72
2024/04/17 06:39:25;;;;;;;7.17;3.60;;;8.20;99.90;;;;;;5391214;26;20261;-71
2024/04/17 06:41:51;;;;;;;4.40;3.33;;;8.20;99.90;;;;;;5383713;26;20389;-73
2024/04/17 06:44:16;;;;;;;9.53;3.80;;;8.30;99.90;;;;;;5381065;26;20266;-74
2024/04/17 06:46:42;;;;;;;5.87;3.80;;;8.30;99.90;;;;;;5387098;26;20322;-72
2024/04/17 06:49:08;;;;;;;4.70;3.13;;;8.30;99.90;;;;;;5377303;26;20269;-72
2024/04/17 06:51:35;;;;;;;5.43;3.57;;;8.40;99.90;;;;;;5384241;26;20475;-73
2024/04/17 06:54:01;;;;;;;7.50;3.40;;;8.40;99.90;;;;;;5384738;26;20555;-72
2024/04/17 06:56:28;;;;;;;7.43;3.37;;;8.30;99.90;;;;;;5377334;26;20504;-71
2024/04/17 06:58:57;;;;;;;4.10;3.00;;;8.50;99.90;;;;;;5383216;26;20266;-72
2024/04/17 07:01:22;;;;;;;5.47;3.20;;;8.50;99.90;;;;;;5380147;26;20555;-72
2024/04/17 07:03:48;;;;;;;6.00;2.70;;;8.40;99.90;;;;;;5376972;26;20504;-72
2024/04/17 07:06:13;;;;;;;3.70;2.80;;;8.50;99.90;;;;;;5381761;26;20265;-72
2024/04/17 07:08:40;;;;;;;3.87;2.67;;;8.40;99.90;;;;;;5389256;26;20312;-75
2024/04/17 07:11:05;;;;;;;4.20;2.50;;;8.40;99.90;;;;;;5379788;26;20262;-72
2024/04/17 07:13:31;;;;;;;4.60;2.40;;;8.50;99.90;;;;;;5384954;26;20525;-72
2024/04/17 07:15:57;;;;;;;4.90;3.50;;;8.40;99.90;;;;;;5395514;26;20256;-72
2024/04/17 07:18:26;;;;;;;6.23;2.67;;;8.40;99.90;;;;;;5378282;26;20333;-72
2024/04/17 07:20:51;;;;;;;6.40;2.70;;;8.40;99.90;;;;;;5391663;26;20490;-73
2024/04/17 07:23:17;;;;;;;5.53;3.00;;;8.50;99.90;;;;;;5385036;26;20502;-72
2024/04/17 07:25:43;;;;;;;3.60;2.30;;;8.50;99.90;;;;;;5380683;26;20774;-72
2024/04/17 07:28:09;;;;;;;3.50;2.37;;;8.50;99.90;;;;;;5355548;26;20292;-72
2024/04/17 07:30:41;;;;;;;3.37;2.80;;;8.50;99.90;;;;;;5387702;26;20604;-72
2024/04/17 07:33:07;;;;;;;9.77;2.50;;;8.50;99.90;;;;;;5380984;26;20331;-71
2024/04/17 07:35:33;;;;;;;7.40;3.20;;;8.50;99.90;;;;;;5379239;26;20510;-72
2024/04/17 07:37:59;;;;;;;2.87;2.27;;;8.50;99.90;;;;;;5349474;26;20488;-72
2024/04/17 07:40:24;;;;;;;5.00;2.10;;;8.60;99.90;;;;;;5376557;26;20270;-73
2024/04/17 07:42:50;;;;;;;5.10;2.43;;;8.50;99.90;;;;;;5381879;26;20307;-74
2024/04/17 07:45:16;;;;;;;6.63;2.00;;;8.60;99.90;;;;;;5384931;26;20673;-72
2024/04/17 07:47:42;;;;;;;5.20;2.10;;;8.60;99.90;;;;;;5381203;26;20261;-74
2024/04/17 07:50:07;;;;;;;3.23;2.13;;;8.50;99.90;;;;;;5380717;26;20350;-74
2024/04/17 07:52:33;;;;;;;5.57;2.80;;;8.60;99.90;;;;;;5379526;26;20262;-74
2024/04/17 07:54:59;;;;;;;3.70;2.10;;;8.60;99.90;;;;;;5383349;26;20361;-72
2024/04/17 07:57:25;;;;;;;3.37;2.10;;;8.60;99.90;;;;;;5380245;26;20261;-71
2024/04/17 07:59:51;;;;;;;1.90;1.80;;;8.70;99.90;;;;;;5380383;26;20515;-75
2024/04/17 08:02:17;;;;;;;6.17;2.37;;;8.70;99.90;;;;;;5376922;26;20953;-74
2024/04/17 08:04:43;;;;;;;3.37;2.23;;;8.90;99.90;;;;;;5388382;26;20323;-71
2024/04/17 08:07:08;;;;;;;3.00;1.80;;;8.90;99.90;;;;;;5418708;26;20315;-74
2024/04/17 08:09:34;;;;;;;3.03;1.87;;;9.00;99.90;;;;;;5368965;26;20752;-72
2024/04/17 08:12:00;;;;;;;2.43;1.70;;;9.00;99.90;;;;;;5388743;26;20269;-72
2024/04/17 08:14:25;;;;;;;1.83;1.70;;;9.20;99.90;;;;;;5384922;26;20278;-73
2024/04/17 08:16:51;;;;;;;2.47;1.57;;;9.20;99.90;;;;;;5389681;26;20269;-71
2024/04/17 08:19:17;;;;;;;2.50;1.97;;;9.20;99.90;;;;;;5385332;26;20279;-71
2024/04/17 08:21:42;;;;;;;5.73;1.77;;;9.30;99.90;;;;;;5388181;26;20719;-72
2024/04/17 08:24:08;;;;;;;1.87;1.60;;;9.30;99.90;;;;;;5382074;26;20337;-73
2024/04/17 08:26:34;;;;;;;4.13;1.73;;;9.30;99.90;;;;;;5380676;26;20403;-73
2024/04/17 08:28:59;;;;;;;2.40;1.70;;;9.30;99.90;;;;;;5389730;26;20303;-73
2024/04/17 08:31:26;;;;;;;5.63;2.23;;;9.30;99.90;;;;;;5384244;26;20814;-73
2024/04/17 08:33:52;;;;;;;4.83;2.20;;;9.30;99.90;;;;;;5381452;26;20902;-73
2024/04/17 08:36:18;;;;;;;4.00;1.63;;;9.40;99.90;;;;;;5387676;26;20613;-73
2024/04/17 08:38:44;;;;;;;1.90;1.50;;;9.30;99.90;;;;;;5364011;26;20797;-75
2024/04/17 08:41:10;;;;;;;1.60;1.50;;;9.50;99.90;;;;;;5393803;26;20273;-73
2024/04/17 08:43:40;;;;;;;6.40;2.03;;;9.60;99.90;;;;;;5391972;26;20269;-72
2024/04/17 08:46:06;;;;;;;12.00;2.13;;;9.90;99.90;;;;;;5387037;26;20509;-73
2024/04/17 08:48:33;;;;;;;3.73;2.47;;;10.10;99.90;;;;;;5387259;26;20488;-73
2024/04/17 08:50:59;;;;;;;3.33;2.00;;;10.20;99.90;;;;;;5387674;26;20609;-72
2024/04/17 08:53:26;;;;;;;5.10;2.80;;;10.40;99.90;;;;;;5389584;26;20551;-70
2024/04/17 08:55:52;;;;;;;3.40;2.50;;;10.50;99.90;;;;;;5388148;26;20537;-73
2024/04/17 08:58:18;;;;;;;4.27;2.43;;;10.50;99.90;;;;;;5364837;26;20494;-75
2024/04/17 09:00:49;;;;;;;6.80;2.10;;;10.60;99.90;;;;;;5394146;26;20265;-73
2024/04/17 09:03:24;;;;;;;3.30;2.53;;;10.50;99.90;;;;;;5384001;26;20940;-71
2024/04/17 09:05:51;;;;;;;2.27;2.07;;;10.50;99.90;;;;;;5358904;26;20505;-71
2024/04/17 09:08:18;;;;;;;8.03;2.07;;;10.30;99.90;;;;;;5389584;26;20581;-72
2024/04/17 09:10:45;;;;;;;3.40;2.27;;;10.20;99.90;;;;;;5397536;26;20650;-72
2024/04/17 09:13:13;;;;;;;4.90;2.27;;;10.20;99.90;;;;;;5394228;26;21036;-74
2024/04/17 09:15:38;;;;;;;3.93;2.30;;;10.30;99.90;;;;;;5390111;26;20492;-70
2024/04/17 09:18:10;;;;;;;4.40;2.33;;;10.40;99.90;;;;;;5389141;26;20921;-72
2024/04/17 09:20:36;;;;;;;6.37;2.53;;;10.50;99.90;;;;;;5391295;26;20266;-72
2024/04/17 09:23:07;;;;;;;2.90;2.60;;;10.60;99.90;;;;;;5393823;26;20547;-71
2024/04/17 09:25:35;;;;;;;3.37;2.50;;;10.50;99.90;;;;;;5387889;26;20257;-72
2024/04/17 09:28:01;;;;;;;4.23;2.60;;;10.10;99.90;;;;;;5390523;26;20890;-70
2024/04/17 09:30:26;;;;;;;4.87;2.50;;;10.20;99.90;;;;;;5385201;26;20533;-71
2024/04/17 09:32:52;;;;;;;2.80;2.37;;;10.30;99.90;;;;;;5386831;26;20614;-73
2024/04/17 09:35:18;;;;;;;1.90;1.77;;;10.40;99.90;;;;;;5395159;26;20720;-75
2024/04/17 09:37:43;;;;;;;3.30;2.53;;;10.40;99.90;;;;;;5386129;26;20334;-73
2024/04/17 09:40:10;;;;;;;2.20;2.00;;;10.30;99.90;;;;;;5387576;26;20294;-73
2024/04/17 09:42:37;;;;;;;3.73;2.00;;;10.20;99.90;;;;;;5387209;26;20315;-73
2024/04/17 09:45:04;;;;;;;4.33;2.40;;;10.30;99.90;;;;;;5388724;26;20488;-73
2024/04/17 09:47:31;;;;;;;2.33;1.73;;;10.20;99.90;;;;;;5386529;26;20606;-73
2024/04/17 09:49:59;;;;;;;6.10;2.10;;;10.30;99.90;;;;;;5391674;26;20906;-71
2024/04/17 09:52:27;;;;;;;1.97;1.83;;;10.30;99.90;;;;;;5393273;26;20479;-71
2024/04/17 09:54:53;;;;;;;3.47;2.07;;;10.30;99.90;;;;;;5340322;26;20531;-72
2024/04/17 09:57:19;;;;;;;2.17;2.03;;;10.40;99.90;;;;;;5400663;26;20495;-72
2024/04/17 09:59:46;;;;;;;7.23;2.70;;;10.30;99.90;;;;;;5392264;26;20562;-75
2024/04/17 10:02:16;;;;;;;8.00;3.00;;;10.50;99.90;;;;;;5399916;26;21127;-73
2024/04/17 10:04:44;;;;;;;3.27;2.50;;;10.50;99.90;;;;;;5397327;26;20486;-74
2024/04/17 10:07:12;;;;;;;3.90;2.93;;;10.60;99.90;;;;;;5393838;26;21165;-72
2024/04/17 10:09:40;;;;;;;3.00;2.80;;;10.50;99.90;;;;;;5396612;26;20563;-71
2024/04/17 10:12:11;;;;;;;4.77;3.57;;;10.60;99.90;;;;;;5364981;26;20545;-71
2024/04/17 10:14:38;;;;;;;8.40;3.10;;;10.60;99.90;;;;;;5385670;26;20554;-72
2024/04/17 10:17:06;;;;;;;4.40;2.97;;;10.50;99.90;;;;;;5367807;26;20552;-71
2024/04/17 10:19:32;;;;;;;4.93;3.17;;;10.40;99.90;;;;;;5390298;26;20497;-74
2024/04/17 10:21:58;;;;;;;3.50;2.67;;;10.50;99.90;;;;;;5385059;26;20562;-70
2024/04/17 10:24:24;;;;;;;2.73;2.40;;;10.40;99.90;;;;;;5397388;26;20308;-72
2024/04/17 10:26:50;;;;;;;3.93;3.10;;;10.60;99.90;;;;;;5387963;26;20642;-72
2024/04/17 10:29:28;;;;;;;2.93;2.63;;;10.90;99.90;;;;;;5383981;26;20291;-73
2024/04/17 10:32:09;;;;;;;2.83;2.40;;;11.00;99.90;;;;;;5391650;26;20550;-72
2024/04/17 10:34:43;;;;;;;5.07;2.20;;;10.80;99.90;;;;;;5359394;26;20552;-71
2024/04/17 10:37:09;;;;;;;7.20;2.23;;;10.80;99.90;;;;;;5393313;26;20533;-71
2024/04/17 10:39:37;;;;;;;3.00;2.70;;;10.90;99.90;;;;;;5394007;26;20498;-72
2024/04/17 10:42:04;;;;;;;2.80;2.57;;;11.00;99.90;;;;;;5360159;26;20576;-71
2024/04/17 10:44:32;;;;;;;3.00;2.27;;;10.90;99.90;;;;;;5392487;26;20544;-71
2024/04/17 10:47:05;;;;;;;2.50;2.30;;;10.90;99.90;;;;;;5391243;26;20481;-72
2024/04/17 10:49:40;;;;;;;2.30;2.10;;;11.10;99.90;;;;;;5390284;26;20578;-73
2024/04/17 10:52:06;;;;;;;9.10;2.77;;;11.20;99.90;;;;;;5389325;26;20897;-75
2024/04/17 10:54:33;;;;;;;3.03;2.77;;;11.30;99.90;;;;;;5385792;26;20529;-73
2024/04/17 10:57:01;;;;;;;2.60;2.40;;;11.40;99.90;;;;;;5391838;26;21036;-74
2024/04/17 10:59:27;;;;;;;4.37;2.70;;;11.30;99.90;;;;;;5383593;26;20592;-71
2024/04/17 11:01:53;;;;;;;2.10;1.80;;;11.40;99.90;;;;;;5391997;26;21024;-71
2024/04/17 11:04:18;;;;;;;3.43;2.40;;;11.40;99.90;;;;;;5389232;26;20591;-72
2024/04/17 11:06:44;;;;;;;5.93;2.80;;;11.40;99.90;;;;;;5394468;26;20262;-73
2024/04/17 11:09:10;;;;;;;5.23;2.70;;;11.50;99.90;;;;;;5387107;26;20709;-71
2024/04/17 11:11:35;;;;;;;3.63;2.90;;;11.50;99.90;;;;;;5388420;26;20313;-72
2024/04/17 11:14:01;;;;;;;5.20;2.63;;;11.60;99.90;;;;;;5386240;26;20738;-72
2024/04/17 11:16:27;;;;;;;3.63;2.87;;;11.70;99.90;;;;;;5385699;26;20306;-72
2024/04/17 11:18:52;;;;;;;5.50;3.17;;;11.80;99.90;;;;;;5391774;26;20325;-69
2024/04/17 11:21:22;;;;;;;3.03;2.73;;;11.90;99.90;;;;;;5362664;26;20801;-72
2024/04/17 11:23:48;;;;;;;3.10;2.43;;;11.90;99.90;;;;;;5386605;26;20291;-71
2024/04/17 11:26:14;;;;;;;3.77;2.90;;;11.60;99.90;;;;;;5389268;26;21019;-72
2024/04/17 11:28:40;;;;;;;2.67;2.43;;;11.70;99.90;;;;;;5388192;26;20315;-70
2024/04/17 11:31:09;;;;;;;4.73;2.90;;;11.70;99.90;;;;;;5381348;26;20335;-72
2024/04/17 11:33:35;;;;;;;3.70;2.87;;;11.50;99.90;;;;;;5340591;26;20501;-71
2024/04/17 11:36:14;;;;;;;5.90;3.20;;;11.60;99.90;;;;;;5342448;26;20535;-73
2024/04/17 11:38:41;;;;;;;4.07;2.87;;;11.70;99.90;;;;;;5351043;26;20575;-71
2024/04/17 11:41:07;;;;;;;5.83;2.50;;;11.70;99.90;;;;;;5374240;26;20493;-74
2024/04/17 11:43:33;;;;;;;2.60;2.40;;;11.60;99.90;;;;;;5346801;26;20587;-71
2024/04/17 11:45:59;;;;;;;2.57;2.37;;;11.50;99.90;;;;;;5316026;26;20279;-71
2024/04/17 11:48:25;;;;;;;2.50;2.10;;;11.60;99.90;;;;;;5377793;26;20273;-72
2024/04/17 11:50:50;;;;;;;2.37;2.17;;;11.60;99.90;;;;;;5381363;26;20277;-70
2024/04/17 11:53:16;;;;;;;2.77;1.90;;;11.60;99.90;;;;;;5373386;26;20344;-71
2024/04/17 11:55:41;;;;;;;3.37;2.20;;;11.80;99.90;;;;;;5379761;26;20629;-70
2024/04/17 11:58:07;;;;;;;2.60;1.73;;;11.70;99.90;;;;;;5372700;26;20252;-72
2024/04/17 12:00:33;;;;;;;3.40;1.90;;;11.60;99.90;;;;;;5369252;26;20266;-71
2024/04/17 12:02:58;;;;;;;3.10;2.10;;;11.90;99.90;;;;;;5379449;26;20268;-72
2024/04/17 12:05:25;;;;;;;4.17;3.43;;;12.30;99.90;;;;;;5381643;26;20285;-73
2024/04/17 12:07:51;;;;;;;3.00;2.20;;;12.20;99.90;;;;;;5380726;26;20265;-72
2024/04/17 12:10:19;;;;;;;8.53;1.87;;;12.10;99.90;;;;;;5374393;26;20494;-72
2024/04/17 12:12:48;;;;;;;2.23;1.80;;;11.60;99.90;;;;;;5378293;26;20484;-74
2024/04/17 12:15:14;;;;;;;1.63;1.37;;;11.30;99.90;;;;;;5352047;26;20535;-72
2024/04/17 12:17:39;;;;;;;11.10;1.80;;;11.10;99.90;;;;;;5386076;26;20575;-71
2024/04/17 12:20:05;;;;;;;1.83;1.50;;;11.10;99.90;;;;;;5380205;26;20750;-71
2024/04/17 12:22:31;;;;;;;1.27;1.17;;;10.90;99.90;;;;;;5355702;26;20265;-71
2024/04/17 12:27:41;;;;;;;2.80;1.57;;;11.00;99.90;;;;;;5386517;26;20425;-72
2024/04/17 12:30:07;;;;;;;1.50;1.30;;;11.00;99.90;;;;;;5385043;26;20570;-73
2024/04/17 12:32:32;;;;;;;1.10;1.00;;;11.00;99.90;;;;;;5351545;26;20629;-71
2024/04/17 12:34:58;;;;;;;0.70;0.70;;;10.90;99.90;;;;;;5385275;26;20314;-72
2024/04/17 12:37:24;;;;;;;0.80;0.80;;;10.80;99.90;;;;;;5377468;26;20268;-71
2024/04/17 12:39:49;;;;;;;1.10;1.00;;;10.70;99.90;;;;;;5393037;26;20265;-74
2024/04/17 12:42:15;;;;;;;0.90;0.90;;;10.70;99.90;;;;;;5378531;26;20260;-74
2024/04/17 12:44:41;;;;;;;1.00;1.00;;;10.70;99.90;;;;;;5382831;26;20299;-70
2024/04/17 12:47:06;;;;;;;1.33;1.00;;;10.60;99.90;;;;;;5382796;26;20270;-70
2024/04/17 12:49:32;;;;;;;1.30;1.20;;;10.60;99.90;;;;;;5380102;26;20718;-69